Time;durP1;ratioP1;P1;durP2;ratioP2;P2;SDS_P1;SDS_P2;PMS_P1;PMS_P2;Temp;Humidity;BMP_temperature;BMP_pressure;BME280_temperature;BME280_humidity;BME280_pressure;Samples;Min_cycle;Max_cycle;Signal;HPM_P1;HPM_P2
2022/10/17 00:02:58;;;;;;;14.68;8.58;;;;;;;15.86;100.00;100131.43;4206188;83;28541;-84
2022/10/17 00:09:03;;;;;;;16.65;9.20;;;;;;;15.55;100.00;100142.97;4197913;83;28539;-84
2022/10/17 00:15:07;;;;;;;17.73;9.28;;;;;;;14.93;100.00;100148.30;4178220;83;28537;-82
2022/10/17 00:21:16;;;;;;;15.68;9.08;;;;;;;15.57;100.00;100137.33;4165523;83;28541;-83
2022/10/17 00:27:18;;;;;;;15.15;9.25;;;;;;;15.62;100.00;100145.58;4189737;83;28537;-84
2022/10/17 00:33:19;;;;;;;17.00;9.85;;;;;;;15.44;100.00;100159.55;4183998;83;28581;-85
2022/10/17 00:39:21;;;;;;;15.05;10.10;;;;;;;15.19;100.00;100168.70;4220845;82;28508;-85
2022/10/17 00:45:29;;;;;;;13.68;9.65;;;;;;;15.05;100.00;100170.00;4236108;82;28516;-84
2022/10/17 00:51:35;;;;;;;13.10;8.68;;;;;;;15.20;100.00;100173.61;4209810;83;28531;-87
2022/10/17 00:57:38;;;;;;;15.78;9.25;;;;;;;15.26;100.00;100169.14;4237392;82;28822;-87
2022/10/17 01:03:40;;;;;;;16.25;8.53;;;;;;;14.95;100.00;100161.62;4263960;82;28514;-88
2022/10/17 01:09:43;;;;;;;13.00;8.43;;;;;;;15.25;100.00;100156.11;4287050;83;28478;-88
2022/10/17 01:15:59;;;;;;;13.98;8.90;;;;;;;14.77;100.00;100158.76;4281922;83;28501;-88
2022/10/17 01:22:09;;;;;;;15.03;9.10;;;;;;;14.91;100.00;100162.61;4208316;83;28591;-88
2022/10/17 01:28:42;;;;;;;14.98;8.73;;;;;;;14.93;100.00;100160.48;4187331;83;28510;-87
2022/10/17 01:35:23;;;;;;;12.58;8.55;;;;;;;15.11;100.00;100158.24;4209033;83;28545;-86
2022/10/17 01:41:30;;;;;;;17.30;8.83;;;;;;;15.00;100.00;100160.41;4254174;83;28574;-86
2022/10/17 01:47:33;;;;;;;15.08;9.10;;;;;;;15.12;100.00;100162.59;4193049;83;28492;-86
2022/10/17 01:53:41;;;;;;;13.93;9.05;;;;;;;14.91;100.00;100168.86;4197752;83;28526;-87
2022/10/17 01:59:47;;;;;;;14.87;8.23;;;;;;;14.88;100.00;100163.89;4184201;83;28586;-85
2022/10/17 02:05:50;;;;;;;11.95;7.47;;;;;;;14.94;100.00;100162.68;4206857;83;28496;-86
2022/10/17 02:12:38;;;;;;;11.30;7.65;;;;;;;14.67;100.00;100163.03;4196006;83;28527;-86
2022/10/17 02:19:28;;;;;;;17.12;9.65;;;;;;;14.64;100.00;100163.00;4197243;83;28549;-84
2022/10/17 02:26:03;;;;;;;12.88;8.55;;;;;;;14.70;100.00;100172.07;4273600;82;28519;-82
2022/10/17 02:32:16;;;;;;;16.27;9.15;;;;;;;14.67;100.00;100167.09;4272534;81;28581;-83
2022/10/17 02:38:19;;;;;;;15.63;8.93;;;;;;;14.74;100.00;100169.22;4265513;81;28490;-84
2022/10/17 02:44:23;;;;;;;15.32;8.55;;;;;;;14.69;100.00;100174.48;4248615;83;28486;-84
2022/10/17 02:50:39;;;;;;;13.93;9.28;;;;;;;14.79;100.00;100170.72;4234364;82;28598;-84
2022/10/17 02:57:04;;;;;;;14.53;9.08;;;;;;;14.56;100.00;100170.08;4268450;82;28495;-84
2022/10/17 03:03:29;;;;;;;15.35;9.20;;;;;;;14.40;100.00;100181.82;4232788;83;28535;-85
2022/10/17 03:09:32;;;;;;;18.37;10.32;;;;;;;14.31;100.00;100180.48;4187334;83;28514;-84
2022/10/17 03:15:33;;;;;;;19.40;10.40;;;;;;;14.34;100.00;100184.11;4216482;83;28513;-83
2022/10/17 03:21:36;;;;;;;13.72;8.98;;;;;;;14.50;100.00;100192.12;4238814;82;28567;-83
2022/10/17 03:27:38;;;;;;;16.07;9.98;;;;;;;14.46;100.00;100197.16;4178496;84;28519;-82
2022/10/17 03:33:39;;;;;;;14.85;9.68;;;;;;;14.55;100.00;100198.20;4228060;82;28499;-82
2022/10/17 03:39:41;;;;;;;16.62;9.53;;;;;;;14.34;100.00;100205.20;4151580;84;28507;-82
2022/10/17 03:45:43;;;;;;;15.95;10.03;;;;;;;14.26;100.00;100215.52;4223114;81;28515;-82
2022/10/17 03:51:44;;;;;;;19.57;10.82;;;;;;;14.16;100.00;100224.98;4230902;82;28466;-82
2022/10/17 03:57:47;;;;;;;17.52;10.30;;;;;;;13.83;100.00;100229.39;4231555;83;28556;-84
2022/10/17 04:03:54;;;;;;;17.62;10.55;;;;;;;13.92;100.00;100224.84;4223757;82;28579;-84
2022/10/17 04:09:57;;;;;;;16.45;9.10;;;;;;;13.89;100.00;100228.51;4216252;83;28463;-84
2022/10/17 04:16:06;;;;;;;15.83;8.88;;;;;;;13.55;100.00;100233.41;4137965;85;28506;-84
2022/10/17 04:22:09;;;;;;;19.37;9.98;;;;;;;14.03;100.00;100238.12;4142903;83;28774;-84
2022/10/17 04:28:13;;;;;;;16.95;9.75;;;;;;;14.03;100.00;100230.01;4211653;83;28560;-85
2022/10/17 04:34:17;;;;;;;19.23;10.53;;;;;;;13.93;100.00;100240.00;4222016;82;28552;-84
2022/10/17 04:40:19;;;;;;;17.48;10.48;;;;;;;14.05;100.00;100243.31;4213162;82;28563;-85
2022/10/17 04:46:24;;;;;;;18.42;11.33;;;;;;;13.98;100.00;100248.80;4215452;82;28483;-83
2022/10/17 04:52:26;;;;;;;20.80;11.53;;;;;;;13.86;100.00;100247.34;4196940;83;28560;-77
2022/10/17 04:58:33;;;;;;;17.57;10.40;;;;;;;13.64;100.00;100250.97;4248369;81;28573;-77
2022/10/17 05:04:32;;;;;;;16.82;10.10;;;;;;;13.66;100.00;100258.36;4194464;82;28483;-77
2022/10/17 05:10:43;;;;;;;17.95;9.98;;;;;;;13.62;100.00;100258.48;4172734;84;28541;-78
2022/10/17 05:16:44;;;;;;;22.87;11.85;;;;;;;13.79;100.00;100260.09;4157017;84;28542;-77
2022/10/17 05:22:46;;;;;;;35.10;13.75;;;;;;;13.99;100.00;100258.56;4222635;82;28541;-81
2022/10/17 05:28:48;;;;;;;38.88;13.83;;;;;;;13.79;100.00;100270.90;4234183;82;28492;-76
2022/10/17 05:34:50;;;;;;;30.23;12.55;;;;;;;13.85;100.00;100272.73;4231720;82;28566;-78
2022/10/17 05:40:59;;;;;;;18.62;10.40;;;;;;;13.80;100.00;100273.94;4196954;82;28521;-78
2022/10/17 05:47:00;;;;;;;20.05;11.03;;;;;;;13.81;100.00;100267.48;4167628;82;28523;-77
2022/10/17 05:53:03;;;;;;;18.23;11.25;;;;;;;13.90;100.00;100278.82;4158402;81;28545;-78
2022/10/17 05:59:05;;;;;;;17.60;10.58;;;;;;;14.09;100.00;100281.02;4257769;82;28518;-77
2022/10/17 06:05:08;;;;;;;21.80;11.28;;;;;;;14.22;100.00;100294.93;4191820;81;28536;-84
2022/10/17 06:11:11;;;;;;;18.92;11.15;;;;;;;14.33;100.00;100306.35;4232107;81;28575;-83
2022/10/17 06:17:17;;;;;;;24.47;13.60;;;;;;;14.46;100.00;100314.02;4197539;82;28610;-82
2022/10/17 06:23:21;;;;;;;20.45;11.80;;;;;;;14.72;100.00;100312.91;4218955;81;28512;-84
2022/10/17 06:29:50;;;;;;;27.05;13.43;;;;;;;14.81;100.00;100324.78;4177029;83;28619;-85
2022/10/17 06:35:57;;;;;;;22.95;13.28;;;;;;;15.23;100.00;100321.32;4130957;83;28594;-89
2022/10/17 06:55:50;;;;;;;26.17;13.55;;;;;;;15.87;100.00;100342.43;3771319;87;28560;-79
2022/10/17 07:02:10;;;;;;;22.93;13.93;;;;;;;16.04;100.00;100343.94;4005370;86;28555;-80
2022/10/17 07:08:18;;;;;;;26.82;15.78;;;;;;;16.21;100.00;100353.55;3957313;87;22683;-80
2022/10/17 07:14:20;;;;;;;27.95;16.57;;;;;;;16.49;100.00;100362.86;4124295;82;28552;-80
2022/10/17 07:20:22;;;;;;;26.07;14.70;;;;;;;16.49;100.00;100370.17;4183122;83;28514;-79
2022/10/17 07:26:26;;;;;;;32.23;15.80;;;;;;;16.82;100.00;100368.17;4064639;86;28588;-79
2022/10/17 07:32:28;;;;;;;29.10;15.63;;;;;;;16.95;100.00;100365.72;4125067;84;28538;-80
2022/10/17 07:38:30;;;;;;;27.15;15.03;;;;;;;17.21;100.00;100362.70;4172181;83;28537;-80
2022/10/17 07:44:34;;;;;;;23.60;14.28;;;;;;;17.40;100.00;100353.80;4143755;84;28541;-80
2022/10/17 07:50:38;;;;;;;24.37;13.53;;;;;;;17.65;100.00;100345.27;4121005;85;28635;-79
2022/10/17 07:56:40;;;;;;;23.32;14.40;;;;;;;17.75;100.00;100344.59;4164688;85;28555;-81
2022/10/17 08:02:42;;;;;;;21.62;12.65;;;;;;;17.92;100.00;100344.63;4188033;84;28575;-79
2022/10/17 08:08:45;;;;;;;18.45;10.55;;;;;;;18.18;100.00;100352.37;4187303;84;28626;-79
2022/10/17 08:14:47;;;;;;;24.60;10.63;;;;;;;18.41;100.00;100354.05;4191762;84;28501;-80
2022/10/17 08:20:49;;;;;;;16.00;9.15;;;;;;;18.67;100.00;100363.38;4197097;83;28521;-81
2022/10/17 08:26:52;;;;;;;21.97;12.78;;;;;;;19.00;98.60;100366.77;4164198;84;28546;-80
2022/10/17 08:33:00;;;;;;;22.98;12.65;;;;;;;18.99;98.08;100367.31;4143661;84;28551;-80
2022/10/17 08:39:01;;;;;;;20.95;13.10;;;;;;;19.20;95.13;100369.75;4096811;85;28535;-79
2022/10/17 08:45:13;;;;;;;18.92;11.83;;;;;;;19.43;94.68;100365.09;4159970;83;28479;-81
2022/10/17 08:51:32;;;;;;;22.25;11.40;;;;;;;19.60;93.13;100364.13;4147897;84;28539;-79
2022/10/17 08:57:33;;;;;;;18.42;11.18;;;;;;;19.86;91.93;100361.64;4164297;83;28588;-80
2022/10/17 09:03:59;;;;;;;17.00;11.18;;;;;;;19.90;90.61;100373.14;4125167;84;28898;-80
2022/10/17 09:10:29;;;;;;;18.40;10.30;;;;;;;20.03;88.95;100381.44;4080448;84;28466;-81
2022/10/17 09:16:52;;;;;;;17.67;10.00;;;;;;;20.20;88.71;100369.55;4163819;84;28588;-80
2022/10/17 09:23:05;;;;;;;14.40;9.03;;;;;;;20.25;87.01;100372.30;4122391;84;28561;-80
2022/10/17 09:29:18;;;;;;;12.53;8.38;;;;;;;20.64;84.17;100366.23;4118474;83;28608;-79
2022/10/17 09:35:22;;;;;;;15.53;8.63;;;;;;;20.76;82.67;100368.19;4165564;83;28505;-77
2022/10/17 09:41:34;;;;;;;16.12;8.73;;;;;;;20.94;80.93;100371.58;4144603;84;28555;-80
2022/10/17 09:47:47;;;;;;;14.03;8.75;;;;;;;21.11;79.22;100373.56;4157658;83;28573;-80
2022/10/17 09:53:56;;;;;;;13.60;7.92;;;;;;;21.07;77.71;100379.83;4112205;84;28528;-80
2022/10/17 10:00:05;;;;;;;15.10;7.85;;;;;;;21.35;78.62;100370.33;4151472;83;28611;-80
2022/10/17 10:06:18;;;;;;;15.78;8.70;;;;;;;21.45;76.95;100366.77;4175911;83;28633;-80
2022/10/17 10:12:25;;;;;;;14.47;7.35;;;;;;;21.61;76.02;100372.27;4167489;83;28495;-80
2022/10/17 10:18:29;;;;;;;;;;;;;;;21.82;75.84;100363.56;4185316;83;28516;-81
2022/10/17 10:24:31;;;;;;;13.50;7.85;;;;;;;21.86;73.33;100359.98;4198171;83;20217;-84
2022/10/17 10:30:33;;;;;;;11.83;7.10;;;;;;;21.98;72.95;100358.90;4210824;83;28486;-84
2022/10/17 10:37:04;;;;;;;10.10;6.37;;;;;;;21.91;73.50;100359.16;4185766;84;28531;-84
2022/10/17 10:43:30;;;;;;;11.38;6.17;;;;;;;21.85;73.82;100356.97;4207222;84;28607;-84
2022/10/17 10:49:32;;;;;;;9.90;6.40;;;;;;;22.58;71.27;100341.78;4188716;84;28573;-83
2022/10/17 10:55:38;;;;;;;8.30;5.95;;;;;;;22.13;71.75;100344.37;4170725;83;28500;-82
2022/10/17 11:02:08;;;;;;;8.63;5.50;;;;;;;22.78;69.57;100334.58;4179700;83;28562;-83
2022/10/17 11:08:19;;;;;;;10.60;4.87;;;;;;;22.88;68.39;100332.34;4172251;83;28526;-84
2022/10/17 11:14:35;;;;;;;10.15;5.33;;;;;;;23.04;66.96;100333.08;4188678;83;28534;-83
2022/10/17 11:21:05;;;;;;;7.55;5.12;;;;;;;23.18;65.49;100326.42;4179406;83;28538;-83
2022/10/17 11:27:08;;;;;;;8.30;5.58;;;;;;;23.22;64.52;100324.19;4185176;83;28571;-85
2022/10/17 11:33:14;;;;;;;9.83;5.10;;;;;;;23.12;66.06;100320.95;4195087;83;28488;-91
2022/10/17 11:39:40;;;;;;;8.28;5.58;;;;;;;23.50;65.23;100327.86;4208645;82;28529;-91
2022/10/17 11:45:47;;;;;;;7.10;5.08;;;;;;;23.50;64.43;100323.17;4212949;83;28501;-88
2022/10/17 11:52:15;;;;;;;7.90;5.62;;;;;;;23.64;63.40;100315.67;4247121;81;28495;-87
2022/10/17 11:58:46;;;;;;;7.05;5.25;;;;;;;23.71;63.58;100315.34;4163467;84;28468;-89
2022/10/17 12:05:04;;;;;;;9.43;5.15;;;;;;;23.80;62.09;100306.74;4159855;83;28510;-83
2022/10/17 12:11:25;;;;;;;8.63;5.67;;;;;;;23.77;62.90;100311.42;4215070;83;28527;-82
2022/10/17 12:17:34;;;;;;;8.35;5.40;;;;;;;23.80;62.35;100300.68;4174283;83;28557;-83
2022/10/17 12:23:37;;;;;;;7.05;5.08;;;;;;;23.92;61.19;100295.35;4125472;84;28511;-84
2022/10/17 12:29:39;;;;;;;9.68;5.62;;;;;;;24.01;61.31;100285.37;4131688;84;28488;-83
2022/10/17 12:35:40;;;;;;;9.40;5.35;;;;;;;23.99;61.53;100283.47;4128591;83;28519;-84
2022/10/17 12:41:47;;;;;;;11.25;6.58;;;;;;;24.05;61.43;100275.45;4152659;83;28615;-83
2022/10/17 12:47:49;;;;;;;8.10;5.87;;;;;;;23.89;61.46;100277.52;4192214;83;28575;-84
2022/10/17 12:54:13;;;;;;;7.60;6.00;;;;;;;24.07;61.37;100275.17;4140522;84;28508;-84
2022/10/17 13:00:40;;;;;;;8.78;5.47;;;;;;;24.10;60.94;100266.34;4154562;84;28475;-83
2022/10/17 13:06:52;;;;;;;;;;;;;;;24.17;60.97;100270.94;4150316;84;28497;-84
2022/10/17 13:13:08;;;;;;;7.62;5.42;;;;;;;24.23;59.37;100272.53;4179308;84;20545;-83
2022/10/17 13:19:18;;;;;;;8.68;5.42;;;;;;;24.27;60.36;100270.55;4126826;84;28606;-84
2022/10/17 13:25:24;;;;;;;8.93;5.80;;;;;;;24.22;60.87;100264.56;4189774;83;28538;-83
2022/10/17 13:31:30;;;;;;;8.33;6.17;;;;;;;24.38;60.55;100266.57;4205718;83;28504;-83
2022/10/17 13:37:34;;;;;;;8.17;5.90;;;;;;;24.27;60.21;100262.31;4214724;83;28515;-84
2022/10/17 13:43:35;;;;;;;9.18;5.47;;;;;;;24.35;60.19;100263.05;4237281;83;28502;-85
2022/10/17 13:49:41;;;;;;;9.23;5.80;;;;;;;24.51;60.11;100267.22;4207236;82;28474;-84
2022/10/17 13:55:59;;;;;;;9.15;5.60;;;;;;;24.43;60.97;100258.81;4218877;82;28468;-85
2022/10/17 14:02:01;;;;;;;9.00;5.62;;;;;;;24.35;60.85;100259.72;4172682;83;28524;-84
2022/10/17 14:08:15;;;;;;;6.35;5.28;;;;;;;24.36;60.14;100265.48;4236977;82;28533;-86
2022/10/17 14:14:24;;;;;;;9.50;6.28;;;;;;;24.32;61.23;100258.14;4164532;83;28532;-84
2022/10/17 14:20:31;;;;;;;8.43;5.62;;;;;;;24.20;61.72;100255.23;4231651;82;28519;-84
2022/10/17 14:26:36;;;;;;;8.95;5.28;;;;;;;24.21;61.92;100253.31;4223067;83;28536;-84
2022/10/17 14:32:36;;;;;;;10.13;6.12;;;;;;;24.15;62.04;100260.80;4153828;83;28636;-84
2022/10/17 14:38:52;;;;;;;9.70;5.25;;;;;;;24.09;62.46;100262.80;4230039;83;28522;-84
2022/10/17 14:45:00;;;;;;;9.05;5.62;;;;;;;24.14;62.46;100256.96;4191003;83;28471;-84
2022/10/17 14:51:19;;;;;;;10.88;6.33;;;;;;;23.89;63.63;100254.75;4247948;82;28518;-83
2022/10/17 14:57:46;;;;;;;9.98;5.42;;;;;;;23.99;63.37;100254.64;4229460;83;28572;-84
2022/10/17 15:03:58;;;;;;;8.43;5.85;;;;;;;23.74;64.03;100249.69;4205188;83;28476;-84
2022/10/17 15:10:35;;;;;;;10.03;5.62;;;;;;;23.68;63.79;100248.09;4099990;83;28563;-83
2022/10/17 15:16:38;;;;;;;10.18;6.17;;;;;;;22.90;65.98;100245.14;4224737;83;28765;-82
2022/10/17 15:22:39;;;;;;;10.40;6.17;;;;;;;22.92;66.74;100253.89;4220193;83;28569;-82
2022/10/17 15:35:11;;;;;;;12.33;7.05;;;;;;;23.16;67.19;100252.62;4227101;83;28612;-84
2022/10/17 15:41:21;;;;;;;14.00;8.35;;;;;;;23.01;67.03;100256.84;4160406;84;44088;-85
2022/10/17 15:47:33;;;;;;;14.85;8.68;;;;;;;22.58;69.47;100255.45;4094596;84;28586;-83
2022/10/17 15:53:39;;;;;;;12.82;7.85;;;;;;;21.94;71.18;100262.80;4126884;84;28551;-82
2022/10/17 15:59:45;;;;;;;13.97;7.13;;;;;;;22.15;72.69;100265.48;4160425;84;28463;-83
2022/10/17 16:05:50;;;;;;;13.43;7.10;;;;;;;21.99;73.72;100267.45;4162180;83;28534;-82
2022/10/17 16:11:54;;;;;;;12.47;7.28;;;;;;;21.88;75.82;100278.16;4163247;84;28544;-82
2022/10/17 16:18:00;;;;;;;15.05;8.20;;;;;;;21.65;75.28;100278.41;4188291;83;28558;-83
2022/10/17 16:24:03;;;;;;;13.27;8.40;;;;;;;21.41;78.11;100272.67;4169433;82;28496;-81
2022/10/17 16:30:07;;;;;;;16.05;9.75;;;;;;;21.25;78.80;100273.22;4201785;82;28532;-82
2022/10/17 16:36:10;;;;;;;17.27;9.90;;;;;;;20.95;83.69;100281.12;4236345;83;28946;-86
2022/10/17 16:42:15;;;;;;;17.57;9.55;;;;;;;20.78;86.73;100287.32;4212758;82;28600;-85
2022/10/17 16:48:29;;;;;;;18.23;10.32;;;;;;;20.73;86.48;100286.23;4236538;81;28668;-85
2022/10/17 16:54:33;;;;;;;15.78;9.45;;;;;;;20.45;89.35;100284.20;4248955;82;28517;-87
2022/10/17 17:00:35;;;;;;;13.85;8.75;;;;;;;20.46;89.84;100276.28;4206135;82;28532;-80
2022/10/17 17:06:41;;;;;;;13.78;8.13;;;;;;;20.34;90.73;100276.50;4214234;82;28504;-80
2022/10/17 17:12:42;;;;;;;11.22;7.30;;;;;;;20.32;88.63;100274.58;4226475;82;28589;-88
2022/10/17 17:18:50;;;;;;;15.83;8.58;;;;;;;20.16;88.59;100266.06;4214172;82;28588;-82
2022/10/17 17:24:55;;;;;;;15.85;8.93;;;;;;;20.07;87.91;100264.36;4212918;82;28531;-81
2022/10/17 17:30:56;;;;;;;20.48;10.68;;;;;;;19.95;87.57;100267.84;4244641;82;28516;-81
2022/10/17 17:36:58;;;;;;;23.05;12.03;;;;;;;20.02;86.58;100269.24;4245367;82;28551;-80
2022/10/17 17:43:02;;;;;;;25.68;13.15;;;;;;;19.98;86.34;100269.50;4198862;82;28550;-79
2022/10/17 17:49:09;;;;;;;41.35;20.20;;;;;;;19.86;85.56;100277.84;4217889;82;28586;-86
2022/10/17 17:55:10;;;;;;;45.28;23.40;;;;;;;19.36;89.22;100273.12;4222051;81;28526;-92
2022/10/17 18:01:22;;;;;;;37.80;19.65;;;;;;;19.62;87.44;100273.31;4202494;82;28526;-83
2022/10/17 18:07:46;;;;;;;30.75;16.65;;;;;;;19.55;87.83;100270.00;4212725;82;28610;-87
2022/10/17 18:14:22;;;;;;;23.27;12.53;;;;;;;19.43;89.04;100266.91;4193715;82;28508;-84
2022/10/17 18:20:34;;;;;;;;;;;;;;;;;;;;;
2022/10/17 18:26:37;;;;;;;26.60;12.98;;;;;;;19.39;91.32;100275.88;4257227;81;28576;-86
2022/10/17 18:46:05;;;;;;;25.05;13.28;;;;;;;18.25;100.00;100274.91;4101198;84;28545;-84
2022/10/17 18:52:07;;;;;;;22.50;11.93;;;;;;;18.49;100.00;100284.19;4153632;81;28565;-82
2022/10/17 18:58:09;;;;;;;22.82;12.13;;;;;;;18.39;100.00;100279.97;4210976;82;28505;-84
2022/10/17 19:04:11;;;;;;;22.40;12.58;;;;;;;18.25;100.00;100278.16;4179124;82;28581;-78
2022/10/17 19:10:13;;;;;;;22.73;11.03;;;;;;;17.90;100.00;100282.00;4232478;82;28538;-78
2022/10/17 19:16:29;;;;;;;24.15;10.72;;;;;;;18.21;100.00;100277.83;4280913;82;28559;-77
2022/10/17 19:22:38;;;;;;;20.75;11.12;;;;;;;17.79;100.00;100280.48;4238870;82;28490;-85
2022/10/17 19:28:43;;;;;;;20.08;11.68;;;;;;;17.88;100.00;100285.52;4152773;82;28597;-84
2022/10/17 19:34:44;;;;;;;21.73;10.95;;;;;;;17.91;100.00;100276.84;4138495;83;28509;-84
2022/10/17 19:40:47;;;;;;;20.37;10.30;;;;;;;17.48;100.00;100271.02;4142608;83;28514;-84
2022/10/17 19:46:50;;;;;;;17.00;9.88;;;;;;;16.93;100.00;100276.86;4183053;83;28547;-86
2022/10/17 19:53:30;;;;;;;;;;;;;;;;;;;;;
2022/10/17 20:07:08;;;;;;;18.75;10.28;;;;;;;17.08;100.00;100290.45;4151986;83;28602;-88
2022/10/17 20:13:09;;;;;;;18.60;9.28;;;;;;;17.10;100.00;100293.74;4152569;83;28543;-91
2022/10/17 20:19:14;;;;;;;18.92;10.05;;;;;;;17.21;100.00;100287.42;4156982;83;28527;-92
2022/10/17 20:25:15;;;;;;;19.50;9.95;;;;;;;17.09;100.00;100288.86;4142201;84;28547;-91
2022/10/17 20:31:19;;;;;;;22.10;10.05;;;;;;;17.02;100.00;100285.46;4163439;83;28494;-90
2022/10/17 20:37:20;;;;;;;22.67;10.70;;;;;;;16.82;100.00;100289.41;4154315;83;28546;-86
2022/10/17 20:43:22;;;;;;;18.75;9.63;;;;;;;16.66;100.00;100295.59;4121773;83;28502;-88
2022/10/17 20:49:25;;;;;;;18.87;9.80;;;;;;;16.72;100.00;100287.84;4154521;84;28534;-90
2022/10/17 20:55:27;;;;;;;15.80;9.50;;;;;;;16.54;100.00;100286.95;4175257;83;28502;-90
2022/10/17 21:01:33;;;;;;;15.80;9.20;;;;;;;16.59;100.00;100280.80;4162793;83;28537;-90
2022/10/17 21:07:35;;;;;;;19.80;9.40;;;;;;;16.31;100.00;100282.42;4178046;83;28511;-88
2022/10/17 21:13:37;;;;;;;18.67;9.90;;;;;;;16.25;100.00;100282.00;4200680;83;28472;-88
2022/10/17 21:19:38;;;;;;;17.65;9.45;;;;;;;16.45;100.00;100279.72;4187842;82;28509;-91
2022/10/17 21:25:39;;;;;;;14.47;8.95;;;;;;;16.22;100.00;100275.70;4158207;83;28559;-90
2022/10/17 21:31:43;;;;;;;20.30;9.25;;;;;;;15.90;100.00;100274.19;4123889;84;28586;-89
2022/10/17 21:37:46;;;;;;;19.95;9.08;;;;;;;15.96;100.00;100269.18;4107961;84;28552;-89
2022/10/17 21:43:56;;;;;;;17.55;9.18;;;;;;;16.00;100.00;100258.14;4107927;84;28553;-88
2022/10/17 21:49:57;;;;;;;15.70;8.98;;;;;;;15.83;100.00;100266.14;4110079;84;28535;-88
2022/10/17 21:56:02;;;;;;;16.80;8.88;;;;;;;15.95;100.00;100260.75;4100330;85;28553;-89
2022/10/17 22:02:03;;;;;;;17.20;8.58;;;;;;;15.85;100.00;100259.95;4106540;84;28508;-88
2022/10/17 22:08:05;;;;;;;15.78;8.60;;;;;;;15.91;100.00;100254.69;4111987;84;28553;-88
2022/10/17 22:14:11;;;;;;;17.27;8.98;;;;;;;15.82;100.00;100253.65;4141766;84;28575;-89
2022/10/17 22:20:12;;;;;;;16.87;9.10;;;;;;;15.87;100.00;100246.16;4113836;84;28527;-89
2022/10/17 22:26:14;;;;;;;17.00;9.13;;;;;;;15.65;100.00;100243.20;4149330;83;28606;-90
2022/10/17 22:32:15;;;;;;;14.25;8.50;;;;;;;15.56;100.00;100236.77;4108727;85;28549;-89
2022/10/17 22:38:17;;;;;;;16.35;7.97;;;;;;;15.47;100.00;100228.17;4130695;85;28488;-90
2022/10/17 22:44:18;;;;;;;20.00;9.65;;;;;;;15.50;100.00;100236.38;4162469;83;28515;-88
2022/10/17 22:50:21;;;;;;;14.73;8.63;;;;;;;15.25;100.00;100221.67;4185725;83;28513;-91
2022/10/17 22:56:22;;;;;;;16.02;9.25;;;;;;;15.25;100.00;100222.48;4169243;83;28530;-91
2022/10/17 23:02:24;;;;;;;18.30;9.88;;;;;;;15.28;100.00;100226.62;4203779;82;28490;-92
2022/10/17 23:08:27;;;;;;;18.27;10.10;;;;;;;15.24;100.00;100218.12;4130007;84;28532;-91
2022/10/17 23:14:28;;;;;;;22.60;9.98;;;;;;;15.09;100.00;100223.98;4111778;85;28453;-89
2022/10/17 23:20:30;;;;;;;18.60;9.98;;;;;;;15.01;100.00;100226.50;4142553;85;28498;-90
2022/10/17 23:26:31;;;;;;;18.45;9.98;;;;;;;14.82;100.00;100214.08;4196510;83;28532;-89
2022/10/17 23:32:33;;;;;;;20.10;10.00;;;;;;;14.86;100.00;100216.64;4174793;83;28531;-91
2022/10/17 23:38:34;;;;;;;18.02;9.35;;;;;;;14.58;100.00;100208.04;4186541;83;28506;-89
2022/10/17 23:44:35;;;;;;;22.65;10.58;;;;;;;14.55;100.00;100202.25;4211183;82;28596;-89
2022/10/17 23:50:37;;;;;;;18.42;9.53;;;;;;;14.39;100.00;100193.70;4208865;81;28502;-89
2022/10/17 23:56:38;;;;;;;18.87;9.43;;;;;;;14.21;100.00;100198.10;4189506;83;28584;-89
